Latest Weather Observations for Point Fawcett

IDD60801

Issued at 11:05 pm CST Friday 18 April 2014 (issued every 30 minutes, with the page automatically refreshed every 10 minutes)

About weather observations | Map of weather stations | Latest weather observations for NT | Other Formats
Station Details ID: 200731 Name: POINT FAWCETT Lat: -11.76 Lon: 130.03 Height: 6.5 m
Data from the previous 72 hours. | See also: Recent months at Point Fawcett
Date/Time
CST
Temp
°C
App
Temp
°C
Dew
Point
Rel
Hum
%
Delta-T
°C
Wind Press
QNH
hPa
Press
MSL
hPa
Rain
since 9 am
mm
Dir
 
Spd
km/h
Gust
km/h
Spd
kts
Gust
kts
18/11:00pm 25.7 29.4 23.9 90 1.2 ESE 11 15 6 8 1011.4 - -
18/10:30pm 25.8 30.4 24.2 91 1.1 ESE 7 7 4 4 1011.5 - -
18/10:00pm 25.9 30.5 24.1 90 1.2 E 7 9 4 5 1011.4 - -
18/09:30pm 26.0 30.8 24.4 91 1.1 E 7 9 4 5 1011.3 - -
18/09:00pm 25.8 30.6 24.4 92 1.0 ESE 7 7 4 4 1011.1 1011.0 -
18/08:30pm 25.8 30.4 24.2 91 1.1 E 7 7 4 4 1010.8 - -
18/08:00pm 25.7 30.2 23.7 89 1.4 ESE 6 7 3 4 1010.8 - -
18/07:30pm 26.0 30.5 23.7 87 1.6 ENE 6 6 3 3 1010.4 - -
18/07:00pm 26.5 30.8 23.6 84 2.0 E 7 9 4 5 1010.3 - -
18/06:30pm 27.0 31.7 23.9 83 2.1 E 6 7 3 4 1009.9 - -
18/06:00pm 27.3 31.3 23.7 81 2.5 ENE 9 13 5 7 1009.6 1009.5 -
18/05:30pm 26.9 31.3 23.8 83 2.1 ENE 7 11 4 6 1009.1 - -
18/05:00pm 27.0 31.6 24.1 84 2.0 NE 7 11 4 6 1008.9 - -
18/04:30pm 26.6 29.9 23.9 85 1.9 N 13 20 7 11 1008.5 - -
18/04:00pm 26.6 28.3 23.1 81 2.4 NE 19 30 10 16 1009.0 - -
18/03:30pm 30.5 34.6 24.6 70 4.1 NW 11 19 6 10 1008.4 - -
18/03:00pm 30.9 35.2 24.3 68 4.6 WSW 9 15 5 8 1008.6 1008.5 -
18/02:30pm 30.5 34.4 24.2 69 4.4 E 11 20 6 11 1008.9 - -
18/02:00pm 33.2 37.2 24.4 60 6.2 N 11 19 6 10 1008.8 - -
18/01:30pm 33.3 38.2 25.3 63 5.7 NNE 9 13 5 7 1009.1 - -
18/01:00pm 32.2 36.3 24.5 64 5.4 E 11 19 6 10 1009.5 - -
18/12:30pm 32.0 35.4 24.1 63 5.5 E 13 20 7 11 1009.9 - -
18/12:00pm 30.4 32.5 23.1 65 5.0 E 17 24 9 13 1010.3 1010.2 -
18/11:30am 31.3 35.6 24.9 69 4.5 ESE 11 17 6 9 1010.6 - -
18/11:00am 30.9 35.1 24.8 70 4.3 E 11 19 6 10 1010.9 - -
18/10:30am 29.9 34.3 25.6 78 3.0 ESE 13 19 7 10 1011.1 - -
18/10:00am 28.1 33.4 25.9 88 1.6 ESE 9 15 5 8 1011.1 - -
18/09:30am 26.2 31.1 25.2 94 0.7 E 9 11 5 6 1011.3 - -
18/09:00am 25.6 30.5 24.6 94 0.7 ESE 7 11 4 6 1011.4 1011.3 -
18/08:30am 25.1 29.7 24.1 94 0.7 SE 7 11 4 6 1011.0 - -
18/08:00am 24.5 28.3 23.5 94 0.7 SE 9 15 5 8 1011.1 - -
18/07:30am 24.6 26.4 23.2 92 0.9 ESE 19 30 10 16 1011.2 - -
18/07:00am 25.6 30.2 24.2 92 1.0 SE 7 9 4 5 1010.4 - -
18/06:30am 25.7 30.2 23.9 90 1.2 SSE 7 9 4 5 1010.0 - -
18/06:00am 26.5 31.3 24.2 87 1.6 S 6 7 3 4 1009.8 1009.7 -
18/05:30am 27.9 32.1 24.7 83 2.2 W 11 15 6 8 1009.3 - -
18/05:00am 28.1 32.0 24.9 83 2.2 W 13 17 7 9 1009.2 - -
18/04:30am 28.2 32.1 24.8 82 2.4 W 13 17 7 9 1009.3 - -
18/04:00am 27.8 32.0 24.8 84 2.1 WSW 11 15 6 8 1009.3 - -
18/03:30am 27.2 31.9 25.0 88 1.5 WSW 9 13 5 7 1009.7 - -
18/03:00am 26.7 31.1 25.1 91 1.1 W 11 15 6 8 1009.7 1009.6 -
18/02:30am 25.8 30.2 24.4 92 1.0 W 9 11 5 6 1009.8 - -
18/02:00am 26.3 30.7 25.1 93 0.8 W 11 15 6 8 1009.9 - -
18/01:30am 25.7 30.3 24.7 94 0.7 W 9 11 5 6 1010.4 - -
18/01:00am 25.7 30.3 24.8 95 0.6 W 9 13 5 7 1010.5 - -
18/12:30am 25.6 30.5 24.6 94 0.7 WNW 7 11 4 6 1010.9 - -
18/12:00am 25.6 30.1 24.6 94 0.7 W 9 11 5 6 1011.0 1010.9 -
 
Date/Time
CST
Temp
°C
App
Temp
°C
Dew
Point
Rel
Hum
%
Delta-T
°C
Wind Press
QNH
hPa
Press
MSL
hPa
Rain
since 9 am
mm
Dir
 
Spd
km/h
Gust
km/h
Spd
kts
Gust
kts
17/11:30pm 25.7 31.2 24.7 94 0.7 S 4 7 2 4 1011.2 - -
17/11:00pm 25.6 30.7 24.6 94 0.7 S 6 7 3 4 1011.1 - -
17/10:30pm 25.6 31.1 24.6 94 0.7 SSE 4 6 2 3 1011.4 - -
17/10:00pm 25.3 30.1 24.1 93 0.8 SSE 6 7 3 4 1011.5 - -
17/09:30pm 25.3 30.0 23.9 92 1.0 SE 6 9 3 5 1011.4 - -
17/09:00pm 25.5 30.1 24.1 92 1.0 SE 7 9 4 5 1011.2 1011.1 -
17/08:30pm 25.4 29.4 23.8 91 1.1 ENE 9 13 5 7 1011.0 - -
17/08:00pm 25.3 28.8 23.5 90 1.2 ENE 11 15 6 8 1010.7 - -
17/07:30pm 26.5 28.9 23.0 81 2.4 E 15 24 8 13 1010.6 - -
17/07:00pm 29.7 33.8 23.9 71 4.0 NNW 9 11 5 6 1009.7 - -
17/06:30pm 30.8 35.3 24.0 67 4.7 NNW 7 11 4 6 1009.4 - -
17/06:00pm 31.2 34.8 23.8 64 5.1 WNW 11 15 6 8 1008.9 1008.8 -
17/05:30pm 31.6 35.3 23.9 63 5.4 WNW 11 15 6 8 1008.5 - -
17/05:00pm 31.8 35.6 24.1 63 5.4 NW 11 15 6 8 1008.1 - -
17/04:30pm 32.1 36.3 24.7 65 5.2 NW 11 13 6 7 1008.0 - -
17/04:00pm 31.9 35.6 24.5 65 5.2 WNW 13 15 7 8 1007.9 - -
17/03:30pm 32.0 35.7 24.6 65 5.2 NW 13 17 7 9 1008.1 - -
17/03:00pm 31.8 35.6 24.7 66 5.0 NW 13 15 7 8 1008.2 1008.1 -
17/02:30pm 31.9 35.7 24.0 63 5.5 WNW 11 15 6 8 1008.5 - -
17/02:00pm 32.2 36.1 24.3 63 5.5 NW 11 13 6 7 1008.8 - -
17/01:30pm 32.4 36.8 24.4 62 5.6 NW 9 13 5 7 1009.2 - -
17/01:00pm 32.3 36.6 24.3 62 5.6 NW 9 11 5 6 1009.3 - -
17/12:30pm 32.2 36.3 24.0 62 5.7 NNW 9 11 5 6 1009.5 - -
17/12:00pm 32.0 36.6 24.8 65 5.1 NW 9 11 5 6 1010.2 1010.1 -
17/11:30am 31.6 36.0 24.5 66 5.0 NW 9 11 5 6 1010.8 - -
17/11:00am 31.2 35.4 24.1 66 4.9 WNW 9 11 5 6 1011.0 - -
17/10:30am 30.9 35.3 23.8 66 4.9 W 7 9 4 5 1011.1 - -
17/10:00am 30.3 34.8 23.7 68 4.6 WSW 6 9 3 5 1011.2 - -
17/09:30am 29.5 34.0 23.9 72 3.9 SW 7 11 4 6 1011.0 - -
17/09:00am 28.6 34.1 25.6 84 2.1 WSW 7 9 4 5 1010.8 1010.7 -
17/08:30am 27.7 34.3 27.0 96 0.5 S 6 7 3 4 1010.6 - -
17/08:00am 25.6 30.9 24.9 96 0.5 S 6 7 3 4 1010.6 - -
17/07:30am 23.7 27.6 23.0 96 0.5 S 7 9 4 5 1010.3 - -
17/07:00am 23.4 27.4 22.7 96 0.5 SSW 6 7 3 4 1010.0 - -
17/06:30am 23.3 27.5 22.5 95 0.5 SW 4 7 2 4 1009.8 - -
17/06:00am 23.7 27.2 22.9 95 0.5 WNW 9 13 5 7 1009.5 1009.4 -
17/05:30am 24.1 27.4 23.2 95 0.6 WNW 11 13 6 7 1009.4 - -
17/05:00am 24.0 27.7 23.3 96 0.5 NNW 9 13 5 7 1009.1 - -
17/04:30am 23.1 28.0 22.3 95 0.5 CALM 0 0 0 0 1008.9 - -
17/04:00am 23.1 28.0 22.3 95 0.5 CALM 0 0 0 0 1009.0 - -
17/03:30am 23.1 27.2 22.3 95 0.5 SE 4 6 2 3 1009.0 - -
17/03:00am 23.2 27.4 22.4 95 0.5 SE 4 6 2 3 1009.0 1008.9 -
17/02:30am 23.2 27.0 22.4 95 0.5 SE 6 6 3 3 1009.3 - -
17/02:00am 23.2 27.0 22.4 95 0.5 SE 6 7 3 4 1009.3 - -
17/01:30am 23.3 27.2 22.5 95 0.5 SE 6 7 3 4 1009.7 - -
17/01:00am 23.4 27.0 22.4 94 0.7 SE 7 9 4 5 1010.1 - -
17/12:30am 23.5 27.4 22.5 94 0.7 NE 6 7 3 4 1010.1 - -
17/12:00am 23.7 27.7 22.7 94 0.7 ESE 6 7 3 4 1010.3 1010.2 -
 
Date/Time
CST
Temp
°C
App
Temp
°C
Dew
Point
Rel
Hum
%
Delta-T
°C
Wind Press
QNH
hPa
Press
MSL
hPa
Rain
since 9 am
mm
Dir
 
Spd
km/h
Gust
km/h
Spd
kts
Gust
kts
16/11:30pm 23.8 27.6 22.8 94 0.7 SE 7 9 4 5 1010.4 - -
16/11:00pm 23.9 27.7 22.7 93 0.8 ESE 7 7 4 4 1010.5 - -
16/10:30pm 24.0 27.8 22.8 93 0.8 SE 7 9 4 5 1010.6 - -
16/10:00pm 24.1 27.9 22.7 92 0.9 ESE 7 7 4 4 1010.6 - -
16/09:30pm 24.3 28.1 22.7 91 1.1 SE 7 7 4 4 1010.3 - -
16/09:00pm 24.5 28.5 22.7 90 1.2 E 6 7 3 4 1009.9 1009.8 -
16/08:30pm 24.8 28.6 22.7 88 1.4 E 7 9 4 5 1009.5 - -
16/08:00pm 25.5 29.4 22.6 84 2.0 E 6 7 3 4 1009.1 - -
16/07:30pm 26.7 30.2 22.8 79 2.6 ENE 9 11 5 6 1009.0 - -
16/07:00pm 27.3 30.2 22.5 75 3.2 NE 11 17 6 9 1008.7 - -
16/06:30pm 28.4 30.9 23.1 73 3.6 NE 15 20 8 11 1008.6 - -
16/06:00pm 30.2 33.6 23.4 67 4.7 NNE 11 24 6 13 1008.4 1008.3 -
16/05:30pm 31.4 33.7 21.3 55 6.8 SE 11 17 6 9 1008.0 - -
16/05:00pm 32.3 35.5 22.4 56 6.8 SE 9 17 5 9 1007.6 - -
16/04:30pm 32.2 35.3 22.9 58 6.4 SSE 11 17 6 9 1007.4 - -
16/04:00pm 32.3 35.2 22.4 56 6.8 SSE 11 20 6 11 1007.4 - -
16/03:30pm 32.7 35.2 22.5 55 7.0 ESE 13 19 7 10 1007.3 - -
16/03:00pm 32.8 35.2 21.6 51 7.6 SE 11 20 6 11 1007.7 1007.6 -
16/02:30pm 33.0 35.7 22.1 52 7.4 ESE 11 20 6 11 1007.9 - -
16/02:00pm 32.4 33.6 20.6 49 7.9 E 15 20 8 11 1008.2 - -
16/01:30pm 32.6 35.1 22.4 55 7.0 E 13 20 7 11 1008.6 - -
16/01:00pm 32.4 34.4 21.6 53 7.3 E 13 20 7 11 1009.0 - -
16/12:30pm 31.9 34.5 22.6 58 6.4 SE 13 20 7 11 1009.6 - -
16/12:00pm 32.0 35.4 23.3 60 6.0 SSE 11 20 6 11 1010.2 1010.1 -
16/11:30am 31.5 34.4 23.1 61 5.8 SE 13 20 7 11 1010.6 - -
16/11:00am 31.4 33.9 22.4 59 6.1 SSE 13 22 7 12 1010.8 - -
16/10:30am 31.3 34.2 23.1 61 5.6 SE 13 20 7 11 1011.2 - -
16/10:00am 31.3 35.0 23.9 64 5.1 ESE 11 19 6 10 1011.2 - -
16/09:30am 30.2 34.5 23.6 67 4.6 ESE 7 13 4 7 1011.2 - -
16/09:00am 29.1 34.4 25.3 80 2.7 ESE 7 11 4 6 1011.0 1010.9 -
16/08:30am 27.7 34.2 26.8 95 0.6 ESE 6 11 3 6 1010.8 - -
16/08:00am 25.1 29.9 24.4 96 0.5 ESE 7 9 4 5 1010.6 - -
16/07:30am 24.1 28.3 23.4 96 0.5 ESE 7 7 4 4 1010.4 - -
16/07:00am 24.0 28.1 23.3 96 0.5 ESE 7 9 4 5 1010.2 - -
16/06:30am 24.6 29.1 23.9 96 0.5 ESE 7 9 4 5 1010.1 - -
16/06:00am 24.6 29.1 23.9 96 0.5 ESE 7 9 4 5 1009.7 1009.6 -
16/05:30am 24.3 28.6 23.6 96 0.5 ESE 7 9 4 5 1009.5 - -
16/05:00am 24.1 28.3 23.4 96 0.5 ESE 7 9 4 5 1009.4 - -
16/04:30am 23.6 27.4 22.8 95 0.5 ESE 7 7 4 4 1009.5 - -
16/04:00am 23.7 27.6 22.9 95 0.5 SE 7 9 4 5 1009.5 - -
16/03:30am 23.8 27.7 22.9 95 0.6 SE 7 9 4 5 1009.7 - -
16/03:00am 23.8 27.7 22.9 95 0.6 SE 7 7 4 4 1009.7 1009.6 -
16/02:30am 23.9 27.8 23.0 95 0.6 SSE 7 9 4 5 1009.8 - -
16/02:00am 24.2 27.9 23.2 94 0.7 S 9 11 5 6 1010.0 - -
16/01:30am 24.3 28.4 23.3 94 0.7 E 7 7 4 4 1009.9 - -
16/01:00am 24.6 28.9 23.6 94 0.7 ENE 7 9 4 5 1010.3 - -
16/12:30am 24.7 28.9 23.5 93 0.8 E 7 9 4 5 1010.8 - -
16/12:00am 24.9 28.9 23.7 93 0.8 E 9 11 5 6 1010.7 1010.6 -
 
Date/Time
CST
Temp
°C
App
Temp
°C
Dew
Point
Rel
Hum
%
Delta-T
°C
Wind Press
QNH
hPa
Press
MSL
hPa
Rain
since 9 am
mm
Dir
 
Spd
km/h
Gust
km/h
Spd
kts
Gust
kts
15/11:30pm 25.2 29.6 23.8 92 1.0 E 7 9 4 5 1010.6 - -

Other Formats:

Comma delimited format used in spreadsheet applications
http://www.bom.gov.au/fwo/IDD60801/IDD60801.94122.axf

JavaScript Object Notation format (JSON) in row-major order
http://www.bom.gov.au/fwo/IDD60801/IDD60801.94122.json